Time;durP1;ratioP1;P1;durP2;ratioP2;P2;SDS_P1;SDS_P2;PMS_P1;PMS_P2;Temp;Humidity;BMP_temperature;BMP_pressure;BME280_temperature;BME280_humidity;BME280_pressure;Samples;Min_cycle;Max_cycle;Signal;HPM_P1;HPM_P2
2022/12/12 00:00:59;;;;;;;47.22;22.40;;;0.50;1.00;;;;;;5069058;28;20179;-87
2022/12/12 00:07:18;;;;;;;44.97;21.33;;;0.50;1.00;;;;;;5071967;28;20237;-87
2022/12/12 00:09:55;;;;;;;46.17;21.88;;;0.50;1.00;;;;;;5071583;28;20262;-87
2022/12/12 00:12:30;;;;;;;46.70;22.83;;;0.50;1.00;;;;;;5068311;28;20744;-86
2022/12/12 00:14:56;;;;;;;48.72;23.17;;;0.60;1.00;;;;;;5071966;28;20194;-87
2022/12/12 00:17:25;;;;;;;44.90;22.57;;;0.60;1.00;;;;;;5069376;28;20172;-87
2022/12/12 00:20:12;;;;;;;44.10;21.27;;;0.60;1.00;;;;;;5073594;28;20162;-86
2022/12/12 00:22:42;;;;;;;46.80;21.85;;;0.60;1.00;;;;;;5070964;28;20190;-76
2022/12/12 00:25:19;;;;;;;46.08;21.83;;;0.60;1.00;;;;;;5060638;28;20540;-76
2022/12/12 00:27:44;;;;;;;47.85;22.55;;;0.60;1.00;;;;;;5071699;28;20228;-76
2022/12/12 00:30:11;;;;;;;49.50;22.10;;;0.60;1.00;;;;;;5055054;28;20183;-77
2022/12/12 00:32:43;;;;;;;44.92;21.77;;;0.60;1.00;;;;;;5073235;28;20191;-76
2022/12/12 00:35:09;;;;;;;49.95;22.50;;;0.70;1.00;;;;;;5070894;28;20218;-77
2022/12/12 00:37:34;;;;;;;48.10;22.83;;;0.70;1.00;;;;;;5073394;28;20527;-76
2022/12/12 00:40:19;;;;;;;47.47;21.63;;;0.60;1.00;;;;;;5071676;28;20449;-76
2022/12/12 00:42:48;;;;;;;43.28;20.75;;;0.60;1.00;;;;;;5071499;28;20429;-76
2022/12/12 00:45:14;;;;;;;48.63;22.30;;;0.70;1.00;;;;;;5060745;28;20654;-77
2022/12/12 00:47:48;;;;;;;42.93;21.33;;;0.70;1.00;;;;;;5072356;28;20175;-77
2022/12/12 00:50:25;;;;;;;46.15;21.83;;;0.70;1.00;;;;;;5068538;28;20654;-77
2022/12/12 00:52:50;;;;;;;53.78;24.05;;;0.70;1.00;;;;;;5057096;28;20232;-77
2022/12/12 00:55:19;;;;;;;56.70;23.27;;;0.70;1.00;;;;;;5072401;28;20167;-77
2022/12/12 00:57:44;;;;;;;46.00;23.17;;;0.70;1.00;;;;;;5071843;28;20175;-76
2022/12/12 01:00:13;;;;;;;42.33;21.80;;;0.70;1.00;;;;;;5071660;28;20201;-76
2022/12/12 01:02:39;;;;;;;39.30;21.00;;;0.70;1.00;;;;;;5070982;28;20182;-76
2022/12/12 01:05:14;;;;;;;45.70;21.80;;;0.70;1.00;;;;;;5070507;28;20183;-77
2022/12/12 01:07:43;;;;;;;46.58;21.75;;;0.70;1.00;;;;;;5074161;28;20574;-77
2022/12/12 01:10:09;;;;;;;52.65;23.30;;;0.70;1.00;;;;;;5076427;28;20198;-76
2022/12/12 01:12:37;;;;;;;45.80;22.63;;;0.70;1.00;;;;;;5076255;28;20602;-77
2022/12/12 01:15:08;;;;;;;50.63;22.90;;;0.70;1.00;;;;;;5071196;28;20270;-76
2022/12/12 01:17:43;;;;;;;44.40;22.38;;;0.80;1.00;;;;;;5073563;28;20853;-77
2022/12/12 01:20:22;;;;;;;47.92;22.55;;;0.80;1.00;;;;;;5055587;28;20584;-76
2022/12/12 01:22:49;;;;;;;45.47;21.95;;;0.80;1.00;;;;;;5074077;28;20171;-77
2022/12/12 01:25:36;;;;;;;42.88;21.63;;;0.80;1.00;;;;;;5075534;28;20186;-76
2022/12/12 01:28:02;;;;;;;42.47;21.17;;;0.90;1.00;;;;;;5074152;28;20171;-76
2022/12/12 01:30:28;;;;;;;43.67;21.10;;;0.90;1.00;;;;;;5074524;28;20175;-76
2022/12/12 01:32:55;;;;;;;54.33;24.40;;;0.90;1.00;;;;;;5075385;28;20181;-77
2022/12/12 01:35:21;;;;;;;50.88;22.73;;;1.00;1.00;;;;;;5071605;28;20238;-76
2022/12/12 01:37:49;;;;;;;47.25;22.15;;;1.00;1.00;;;;;;5078124;28;20194;-77
2022/12/12 01:40:23;;;;;;;42.83;21.27;;;1.10;1.00;;;;;;5087196;28;20179;-76
2022/12/12 01:42:55;;;;;;;44.75;21.92;;;1.10;1.00;;;;;;5070168;28;20183;-77
2022/12/12 01:46:01;;;;;;;43.58;21.00;;;1.10;1.00;;;;;;5074436;28;20171;-77
2022/12/12 01:49:02;;;;;;;49.17;20.30;;;1.20;1.00;;;;;;5064699;28;20175;-77
2022/12/12 01:51:44;;;;;;;41.78;21.77;;;1.20;1.00;;;;;;5063470;28;20220;-78
2022/12/12 01:54:37;;;;;;;42.85;21.65;;;1.20;1.00;;;;;;5073280;28;20175;-77
2022/12/12 01:57:13;;;;;;;46.58;21.60;;;1.20;1.00;;;;;;5066094;28;20182;-77
2022/12/12 01:59:56;;;;;;;45.40;21.42;;;1.20;1.00;;;;;;5067289;28;20182;-77
2022/12/12 02:02:21;;;;;;;42.63;21.42;;;1.20;1.00;;;;;;5073298;28;20182;-77
2022/12/12 02:04:47;;;;;;;42.40;21.53;;;1.10;1.00;;;;;;5069188;28;20179;-77
2022/12/12 02:07:19;;;;;;;46.67;22.87;;;1.10;1.00;;;;;;5073865;28;20194;-77
2022/12/12 02:09:47;;;;;;;46.75;23.15;;;1.10;1.00;;;;;;5072765;28;20456;-77
2022/12/12 02:12:19;;;;;;;47.97;22.58;;;1.00;1.00;;;;;;5073439;28;20710;-77
2022/12/12 02:14:51;;;;;;;49.22;23.30;;;1.10;1.00;;;;;;5055050;28;20631;-77
2022/12/12 02:17:31;;;;;;;51.90;23.98;;;1.10;1.00;;;;;;5071355;28;20218;-77
2022/12/12 02:20:14;;;;;;;44.08;21.23;;;1.10;1.00;;;;;;5072932;28;20261;-77
2022/12/12 02:29:45;;;;;;;48.55;21.80;;;1.20;1.00;;;;;;5075724;28;20174;-88
2022/12/12 02:33:06;;;;;;;48.22;22.75;;;1.20;1.00;;;;;;5074076;28;20203;-87
2022/12/12 02:36:09;;;;;;;46.40;21.88;;;1.10;1.00;;;;;;5064090;28;20159;-88
2022/12/12 02:38:57;;;;;;;41.75;20.90;;;1.10;1.00;;;;;;5068818;28;20225;-77
2022/12/12 02:41:26;;;;;;;45.10;21.50;;;1.10;1.00;;;;;;5069660;28;20220;-77
2022/12/12 02:44:18;;;;;;;42.85;20.67;;;1.10;1.00;;;;;;5064939;28;20207;-77
2022/12/12 02:47:05;;;;;;;44.28;21.08;;;1.20;1.00;;;;;;5065317;28;20215;-77
2022/12/12 02:50:17;;;;;;;51.83;22.02;;;1.20;1.00;;;;;;5065405;28;20634;-77
2022/12/12 02:52:49;;;;;;;48.15;21.25;;;1.20;1.00;;;;;;5072672;28;20223;-87
2022/12/12 02:55:36;;;;;;;44.72;22.33;;;1.20;1.00;;;;;;5072852;28;20182;-87
2022/12/12 02:58:19;;;;;;;46.17;23.25;;;1.20;1.00;;;;;;5073311;28;20190;-87
2022/12/12 03:01:09;;;;;;;46.05;22.27;;;1.20;1.00;;;;;;5072920;28;20577;-88
2022/12/12 03:10:22;;;;;;;50.47;22.90;;;1.10;1.00;;;;;;5070028;28;20309;-76
2022/12/12 03:13:34;;;;;;;51.28;23.98;;;1.10;1.00;;;;;;5072059;28;20341;-77
2022/12/12 03:16:30;;;;;;;49.38;23.45;;;1.10;1.00;;;;;;5027537;28;20566;-77
2022/12/12 03:19:20;;;;;;;50.00;23.65;;;1.10;1.00;;;;;;5034207;28;20195;-77
2022/12/12 03:22:21;;;;;;;47.63;22.45;;;1.20;1.00;;;;;;5015554;28;20192;-77
2022/12/12 03:25:01;;;;;;;54.90;23.38;;;1.20;1.00;;;;;;4953479;28;20213;-77
2022/12/12 03:27:59;;;;;;;49.63;22.70;;;1.20;1.00;;;;;;4940497;29;20191;-77
2022/12/12 03:30:28;;;;;;;46.05;21.92;;;1.20;1.00;;;;;;4934423;29;20191;-77
2022/12/12 03:33:30;;;;;;;48.53;22.85;;;1.20;1.00;;;;;;4934674;29;20216;-77
2022/12/12 03:36:38;;;;;;;48.97;22.00;;;1.20;1.00;;;;;;4934360;29;20628;-77
2022/12/12 03:39:11;;;;;;;47.88;22.10;;;1.10;1.00;;;;;;4900632;29;20189;-77
2022/12/12 03:41:51;;;;;;;49.00;22.33;;;1.10;1.00;;;;;;4896666;29;20585;-77
2022/12/12 03:44:25;;;;;;;41.13;21.88;;;1.10;1.00;;;;;;4908702;29;20188;-76
2022/12/12 03:47:01;;;;;;;48.28;21.55;;;1.10;1.00;;;;;;4903540;29;20200;-77
2022/12/12 03:49:42;;;;;;;53.40;24.23;;;1.20;1.00;;;;;;4915047;29;20180;-76
2022/12/12 03:52:21;;;;;;;46.60;22.27;;;1.20;1.00;;;;;;4931185;28;20217;-77
2022/12/12 03:55:00;;;;;;;45.40;22.98;;;1.20;1.00;;;;;;4979880;28;20188;-76
2022/12/12 03:57:33;;;;;;;46.63;23.00;;;1.20;1.00;;;;;;4992333;28;20173;-77
2022/12/12 04:00:18;;;;;;;46.55;21.90;;;1.30;1.00;;;;;;4991477;28;20622;-77
2022/12/12 04:03:01;;;;;;;48.38;21.73;;;1.30;1.00;;;;;;5015365;28;20267;-77
2022/12/12 04:05:35;;;;;;;50.95;23.27;;;1.30;1.00;;;;;;5013767;28;20337;-77
2022/12/12 04:08:23;;;;;;;50.65;22.17;;;1.20;1.00;;;;;;5031290;28;20184;-87
2022/12/12 04:14:21;;;;;;;42.83;21.80;;;1.20;1.00;;;;;;5067969;28;20181;-87
2022/12/12 04:17:02;;;;;;;47.88;22.10;;;1.20;1.00;;;;;;5074242;28;20197;-87
2022/12/12 04:23:16;;;;;;;44.38;21.08;;;1.30;1.00;;;;;;5074140;28;20182;-78
2022/12/12 04:29:00;;;;;;;46.20;21.23;;;1.30;1.00;;;;;;5057604;28;20212;-77
2022/12/12 04:31:29;;;;;;;45.10;21.52;;;1.30;1.00;;;;;;5071419;28;20194;-77
2022/12/12 04:34:25;;;;;;;41.40;20.65;;;1.20;1.00;;;;;;5056619;28;20200;-76
2022/12/12 04:36:52;;;;;;;48.30;20.77;;;1.20;1.00;;;;;;5067859;28;20253;-77
2022/12/12 04:39:50;;;;;;;45.35;22.27;;;1.30;1.00;;;;;;5072675;28;20221;-77
2022/12/12 04:42:23;;;;;;;52.72;21.83;;;1.30;1.00;;;;;;5075843;28;20179;-77
2022/12/12 04:44:53;;;;;;;49.30;21.77;;;1.30;1.00;;;;;;5069653;28;20830;-77
2022/12/12 04:47:29;;;;;;;45.30;22.23;;;1.40;1.00;;;;;;5077238;28;20215;-77
2022/12/12 04:49:56;;;;;;;53.63;23.05;;;1.50;1.00;;;;;;5075606;28;20183;-77
2022/12/12 04:52:27;;;;;;;46.50;23.63;;;1.50;1.00;;;;;;5074006;28;20677;-77
2022/12/12 04:55:04;;;;;;;44.08;22.23;;;1.40;1.00;;;;;;5064787;28;20183;-87
2022/12/12 04:57:49;;;;;;;47.03;22.17;;;1.40;1.00;;;;;;5076640;28;20178;-87
2022/12/12 05:04:15;;;;;;;44.38;21.02;;;1.50;1.00;;;;;;5077305;28;20169;-88
2022/12/12 05:07:18;;;;;;;47.97;21.58;;;1.50;1.00;;;;;;5095836;28;20200;-87
2022/12/12 05:09:49;;;;;;;45.83;20.23;;;1.50;1.00;;;;;;5096044;28;20174;-87
2022/12/12 05:12:16;;;;;;;50.80;22.48;;;1.50;1.00;;;;;;5095434;28;20202;-87
2022/12/12 05:14:43;;;;;;;48.05;22.55;;;1.50;1.00;;;;;;5095699;28;20179;-88
2022/12/12 05:17:34;;;;;;;43.15;21.00;;;1.50;1.00;;;;;;5095336;28;20178;-87
2022/12/12 05:20:14;;;;;;;45.25;22.83;;;1.50;1.00;;;;;;5078717;28;20291;-87
2022/12/12 05:23:18;;;;;;;47.33;22.10;;;1.50;1.00;;;;;;5078059;28;20264;-88
2022/12/12 05:25:49;;;;;;;48.67;22.55;;;1.40;1.00;;;;;;5077655;28;20578;-77
2022/12/12 05:28:19;;;;;;;44.78;21.65;;;1.40;1.00;;;;;;5094201;28;20894;-77
2022/12/12 05:31:01;;;;;;;47.67;20.77;;;1.40;1.00;;;;;;5077412;28;20605;-77
2022/12/12 05:33:31;;;;;;;46.35;21.80;;;1.40;1.00;;;;;;5094154;28;20212;-77
2022/12/12 05:36:01;;;;;;;48.63;22.63;;;1.30;1.00;;;;;;5094457;28;20526;-77
2022/12/12 05:38:37;;;;;;;47.55;21.73;;;1.30;1.00;;;;;;5101971;28;20235;-86
2022/12/12 05:41:07;;;;;;;45.05;22.88;;;1.30;1.00;;;;;;5097609;28;20339;-77
2022/12/12 05:43:38;;;;;;;47.80;23.30;;;1.30;1.00;;;;;;5084116;28;20195;-76
2022/12/12 05:46:08;;;;;;;48.95;23.40;;;1.40;1.00;;;;;;5073935;28;20340;-77
2022/12/12 05:48:33;;;;;;;45.97;21.67;;;1.50;1.00;;;;;;5064332;28;20178;-77
2022/12/12 05:51:02;;;;;;;48.40;22.90;;;1.50;1.00;;;;;;5073588;28;20199;-78
2022/12/12 05:54:06;;;;;;;46.05;22.60;;;1.50;1.00;;;;;;5075535;28;20708;-78
2022/12/12 06:00:01;;;;;;;40.20;20.42;;;1.40;1.00;;;;;;5076584;28;20185;-88
2022/12/12 06:02:48;;;;;;;44.72;21.92;;;1.30;1.00;;;;;;5065776;28;20697;-88
2022/12/12 06:05:25;;;;;;;44.55;22.27;;;1.30;1.00;;;;;;5066512;28;20185;-87
2022/12/12 06:08:18;;;;;;;46.33;22.27;;;1.30;1.00;;;;;;5068412;28;20179;-88
2022/12/12 06:10:49;;;;;;;52.90;23.42;;;1.30;1.00;;;;;;5077016;28;20182;-87
2022/12/12 06:13:15;;;;;;;42.63;21.85;;;1.30;1.00;;;;;;5074916;28;20228;-87
2022/12/12 06:15:43;;;;;;;51.30;22.90;;;1.40;1.00;;;;;;5073680;28;20179;-88
2022/12/12 06:18:48;;;;;;;50.50;22.23;;;1.40;1.00;;;;;;5074388;28;20175;-88
2022/12/12 06:21:48;;;;;;;41.38;21.80;;;1.30;1.00;;;;;;5065231;28;20191;-87
2022/12/12 06:24:19;;;;;;;47.17;21.77;;;1.40;1.00;;;;;;5074476;28;20182;-77
2022/12/12 06:26:50;;;;;;;43.58;21.40;;;1.50;1.00;;;;;;5063293;28;20187;-77
2022/12/12 06:29:25;;;;;;;40.35;21.58;;;1.50;1.00;;;;;;5065784;28;20211;-77
2022/12/12 06:32:01;;;;;;;44.80;22.30;;;1.50;1.00;;;;;;5072632;28;20194;-77
2022/12/12 06:34:27;;;;;;;45.53;22.33;;;1.40;1.00;;;;;;5072820;28;20253;-76
2022/12/12 06:37:19;;;;;;;44.57;23.30;;;1.30;1.00;;;;;;5075319;28;20202;-83
2022/12/12 06:39:45;;;;;;;53.70;23.45;;;1.30;1.00;;;;;;5065128;28;20190;-73
2022/12/12 06:42:19;;;;;;;48.78;23.33;;;1.40;1.00;;;;;;5071141;28;20622;-73
2022/12/12 06:44:45;;;;;;;43.80;20.67;;;1.40;1.00;;;;;;5063848;28;20175;-73
2022/12/12 06:47:11;;;;;;;49.42;22.58;;;1.30;1.00;;;;;;5071425;28;20530;-73
2022/12/12 06:49:37;;;;;;;44.10;21.50;;;1.30;1.00;;;;;;5064267;28;20187;-73
2022/12/12 06:52:02;;;;;;;49.73;21.60;;;1.30;1.00;;;;;;5070841;28;20449;-74
2022/12/12 06:54:31;;;;;;;45.47;23.03;;;1.30;1.00;;;;;;5074437;28;20246;-73
2022/12/12 06:56:57;;;;;;;42.75;21.48;;;1.30;1.00;;;;;;5071954;28;20175;-73
2022/12/12 06:59:49;;;;;;;43.00;21.87;;;1.20;1.00;;;;;;5064684;28;20184;-78
2022/12/12 07:02:31;;;;;;;45.17;21.20;;;1.20;1.00;;;;;;5072309;28;20185;-79
2022/12/12 07:05:01;;;;;;;44.97;21.55;;;1.20;1.00;;;;;;5059413;28;20179;-77
2022/12/12 07:07:27;;;;;;;49.65;22.13;;;1.20;1.00;;;;;;5074079;28;20167;-74
2022/12/12 07:09:55;;;;;;;44.80;22.07;;;1.20;1.00;;;;;;5071215;28;20187;-75
2022/12/12 07:12:31;;;;;;;45.92;21.38;;;1.10;1.00;;;;;;5063391;28;20654;-78
2022/12/12 07:15:01;;;;;;;43.03;20.63;;;1.10;1.00;;;;;;5069030;28;20261;-72
2022/12/12 07:17:31;;;;;;;40.17;21.40;;;1.00;1.00;;;;;;5067230;28;20167;-74
2022/12/12 07:19:56;;;;;;;52.28;23.55;;;1.00;1.00;;;;;;5073402;28;20575;-73
2022/12/12 07:22:22;;;;;;;45.60;21.50;;;1.00;1.00;;;;;;5073963;28;20174;-73
2022/12/12 07:24:51;;;;;;;43.70;20.10;;;1.00;1.00;;;;;;5073779;28;20198;-75
2022/12/12 07:27:19;;;;;;;56.58;23.30;;;0.90;1.00;;;;;;5072130;28;20634;-74
2022/12/12 07:29:45;;;;;;;48.05;22.00;;;0.90;1.00;;;;;;5069742;28;20193;-75
2022/12/12 07:32:19;;;;;;;65.05;23.02;;;0.90;1.00;;;;;;5073288;28;20185;-75
2022/12/12 07:34:49;;;;;;;42.53;21.48;;;0.90;1.00;;;;;;5065915;28;20178;-75
2022/12/12 07:37:31;;;;;;;49.60;22.08;;;0.80;1.00;;;;;;5072306;28;20622;-75
2022/12/12 07:39:57;;;;;;;49.65;20.90;;;0.80;1.00;;;;;;5067255;28;20186;-75
2022/12/12 07:42:31;;;;;;;47.90;21.40;;;0.70;1.00;;;;;;5073965;28;20175;-75
2022/12/12 07:45:01;;;;;;;45.45;20.75;;;0.70;1.00;;;;;;5073620;28;20964;-77
2022/12/12 07:47:27;;;;;;;48.95;21.42;;;0.60;1.00;;;;;;5067585;28;20198;-74
2022/12/12 07:49:53;;;;;;;45.70;20.83;;;0.60;1.00;;;;;;5068195;28;20175;-73
2022/12/12 07:52:20;;;;;;;40.20;20.65;;;0.60;1.00;;;;;;5072535;28;20669;-73
2022/12/12 07:54:46;;;;;;;41.92;20.42;;;0.50;1.00;;;;;;5073061;28;20598;-74
2022/12/12 07:57:14;;;;;;;44.17;20.90;;;0.40;1.00;;;;;;5060744;28;20220;-71
2022/12/12 07:59:40;;;;;;;51.05;24.35;;;0.40;1.00;;;;;;5024790;28;20188;-70
2022/12/12 08:02:08;;;;;;;50.20;21.77;;;0.40;1.00;;;;;;5064238;28;20191;-70
2022/12/12 08:04:34;;;;;;;45.60;21.48;;;0.50;1.00;;;;;;5064837;28;20183;-70
2022/12/12 08:07:00;;;;;;;47.03;20.75;;;0.50;1.00;;;;;;5068963;28;20183;-70
2022/12/12 08:09:26;;;;;;;49.33;21.30;;;0.50;1.00;;;;;;5057950;28;20240;-70
2022/12/12 08:11:56;;;;;;;49.10;21.07;;;0.60;1.00;;;;;;5072138;28;20195;-70
2022/12/12 08:14:22;;;;;;;43.42;20.73;;;0.70;1.00;;;;;;5064035;28;20496;-70
2022/12/12 08:16:49;;;;;;;43.50;21.83;;;0.80;1.00;;;;;;5065413;28;20724;-71
2022/12/12 08:19:15;;;;;;;41.35;20.75;;;0.80;1.00;;;;;;5062964;28;20535;-76
2022/12/12 08:21:41;;;;;;;44.00;21.77;;;0.90;1.00;;;;;;5071028;28;20194;-76
2022/12/12 08:24:12;;;;;;;48.78;23.17;;;1.00;1.00;;;;;;5067368;28;20179;-76
2022/12/12 08:26:38;;;;;;;45.08;22.02;;;1.00;1.00;;;;;;5067400;28;20218;-76
2022/12/12 08:29:04;;;;;;;45.40;21.65;;;1.10;1.00;;;;;;5070388;28;20183;-77
2022/12/12 08:31:32;;;;;;;38.55;20.40;;;1.20;1.00;;;;;;5072811;28;20221;-77
2022/12/12 08:33:59;;;;;;;41.78;21.00;;;1.30;1.00;;;;;;5072779;28;20676;-76
2022/12/12 08:36:29;;;;;;;45.03;21.98;;;1.40;1.00;;;;;;5072716;28;20171;-77
2022/12/12 08:39:25;;;;;;;44.97;21.85;;;1.60;1.00;;;;;;5070954;28;20227;-76
2022/12/12 08:41:55;;;;;;;45.85;21.58;;;1.70;1.00;;;;;;5072633;28;20193;-76
2022/12/12 08:44:49;;;;;;;44.53;23.00;;;1.80;1.00;;;;;;5070978;28;20175;-77
2022/12/12 08:47:15;;;;;;;43.33;23.02;;;1.90;1.00;;;;;;5060363;28;20179;-77
2022/12/12 08:49:55;;;;;;;40.23;20.77;;;2.10;1.00;;;;;;5072411;28;21919;-77
2022/12/12 08:52:25;;;;;;;40.38;21.10;;;2.30;1.00;;;;;;5070385;28;20642;-77
2022/12/12 08:54:55;;;;;;;41.60;21.40;;;2.50;1.00;;;;;;5072444;28;20717;-77
2022/12/12 08:57:26;;;;;;;40.13;19.48;;;2.60;1.00;;;;;;5070536;28;20168;-77
2022/12/12 08:59:51;;;;;;;48.47;20.15;;;2.70;1.00;;;;;;5056651;28;20667;-77
2022/12/12 09:02:20;;;;;;;36.10;18.33;;;2.80;1.00;;;;;;5072876;28;20183;-82
2022/12/12 09:05:07;;;;;;;41.05;18.95;;;2.80;1.00;;;;;;5067090;28;20573;-77
2022/12/12 09:07:34;;;;;;;38.00;19.33;;;2.90;1.00;;;;;;5072646;28;20274;-77
2022/12/12 09:10:03;;;;;;;33.38;17.83;;;3.00;1.00;;;;;;5064698;28;20658;-77
2022/12/12 09:12:32;;;;;;;37.03;18.85;;;3.10;1.00;;;;;;5071478;28;20230;-77
2022/12/12 09:15:02;;;;;;;39.70;18.50;;;3.20;1.00;;;;;;5069310;28;20171;-88
2022/12/12 09:17:32;;;;;;;35.75;17.42;;;3.20;1.00;;;;;;5073715;28;20421;-88
2022/12/12 09:20:08;;;;;;;35.22;18.80;;;3.20;1.00;;;;;;5068173;28;20191;-88
2022/12/12 09:26:14;;;;;;;34.30;18.55;;;3.30;1.00;;;;;;5063175;28;20181;-88
2022/12/12 09:28:40;;;;;;;34.85;18.85;;;3.40;1.00;;;;;;5077008;28;20187;-78
2022/12/12 09:31:07;;;;;;;33.73;18.00;;;3.60;1.00;;;;;;5071742;28;20244;-77
2022/12/12 09:33:34;;;;;;;31.90;18.10;;;3.70;1.00;;;;;;5073498;28;20421;-77
2022/12/12 09:36:19;;;;;;;32.95;17.58;;;3.90;1.00;;;;;;5075818;28;20417;-77
2022/12/12 09:38:56;;;;;;;33.80;17.13;;;4.10;1.00;;;;;;5068760;28;20187;-77
2022/12/12 09:41:32;;;;;;;38.60;18.40;;;4.10;1.00;;;;;;5067192;28;20433;-77
2022/12/12 09:44:14;;;;;;;33.40;17.10;;;4.10;1.00;;;;;;5064101;28;20404;-77
2022/12/12 09:46:59;;;;;;;36.73;17.57;;;4.20;1.00;;;;;;5075472;28;20209;-77
2022/12/12 09:49:28;;;;;;;41.47;19.20;;;4.20;1.00;;;;;;5062218;28;21075;-77
2022/12/12 09:51:57;;;;;;;42.58;17.70;;;4.20;1.00;;;;;;5075203;28;20226;-77
2022/12/12 09:54:25;;;;;;;37.65;18.40;;;3.90;1.00;;;;;;5075373;28;20156;-76
2022/12/12 09:57:26;;;;;;;36.25;17.52;;;4.00;1.00;;;;;;5057376;28;20171;-77
2022/12/12 10:00:07;;;;;;;36.72;19.10;;;4.20;1.00;;;;;;5068078;28;20185;-77
2022/12/12 10:03:14;;;;;;;35.00;17.80;;;4.30;1.00;;;;;;5070105;28;20179;-76
2022/12/12 10:06:04;;;;;;;35.73;17.83;;;4.50;1.00;;;;;;5073027;28;20210;-77
2022/12/12 10:08:52;;;;;;;32.43;17.47;;;4.60;1.00;;;;;;5075305;28;20514;-81
2022/12/12 10:11:49;;;;;;;40.00;17.20;;;4.80;1.00;;;;;;5065550;28;20854;-78
2022/12/12 10:14:38;;;;;;;30.80;16.77;;;4.90;1.00;;;;;;5074139;28;20962;-77
2022/12/12 10:17:40;;;;;;;34.17;16.80;;;5.00;1.00;;;;;;5074738;28;20925;-77
2022/12/12 10:20:24;;;;;;;32.80;16.33;;;5.10;1.00;;;;;;5074068;28;20420;-76
2022/12/12 10:23:32;;;;;;;33.47;14.47;;;5.20;1.00;;;;;;5067526;28;20873;-77
2022/12/12 10:26:17;;;;;;;29.47;15.53;;;5.30;1.00;;;;;;5074042;28;21126;-76
2022/12/12 10:28:47;;;;;;;29.67;16.03;;;5.00;1.00;;;;;;5061540;28;20901;-77
2022/12/12 10:31:31;;;;;;;31.67;15.30;;;5.00;1.00;;;;;;5073198;28;20846;-78
2022/12/12 10:34:28;;;;;;;30.83;14.67;;;5.10;1.00;;;;;;5071875;28;20429;-77
2022/12/12 10:37:11;;;;;;;30.87;16.03;;;5.20;1.00;;;;;;5063099;28;20518;-76
2022/12/12 10:40:18;;;;;;;31.37;17.27;;;5.20;1.00;;;;;;5071108;28;20492;-76
2022/12/12 10:42:56;;;;;;;30.57;15.67;;;5.10;1.00;;;;;;5046316;28;20886;-77
2022/12/12 10:45:40;;;;;;;34.43;16.13;;;5.00;1.00;;;;;;5047733;28;20430;-77
2022/12/12 10:48:06;;;;;;;30.07;15.20;;;5.00;1.00;;;;;;5037592;28;20434;-76
2022/12/12 10:50:47;;;;;;;31.90;16.10;;;4.90;1.00;;;;;;5049969;28;22334;-77
2022/12/12 10:53:20;;;;;;;31.13;15.80;;;4.80;1.00;;;;;;5051392;28;20199;-78
2022/12/12 10:55:54;;;;;;;29.70;15.00;;;4.80;1.00;;;;;;5043188;28;20418;-76
2022/12/12 10:58:38;;;;;;;32.13;15.73;;;4.70;1.00;;;;;;5051628;28;20520;-76
2022/12/12 11:01:20;;;;;;;28.30;15.17;;;4.60;1.00;;;;;;5041993;28;20500;-85
2022/12/12 11:03:51;;;;;;;28.50;14.97;;;4.50;1.00;;;;;;5040845;28;20411;-86
2022/12/12 11:10:12;;;;;;;32.70;16.03;;;4.20;1.00;;;;;;5040430;28;20421;-86
2022/12/12 11:12:38;;;;;;;29.55;16.05;;;4.20;1.00;;;;;;5029743;28;20470;-86
2022/12/12 11:15:12;;;;;;;34.97;16.20;;;4.20;1.00;;;;;;5087489;28;20215;-85
2022/12/12 11:17:38;;;;;;;24.63;14.20;;;4.20;1.00;;;;;;5070874;28;20954;-86
2022/12/12 11:23:28;;;;;;;29.70;15.70;;;4.10;1.00;;;;;;5065197;28;20182;-86
2022/12/12 11:26:02;;;;;;;32.90;15.35;;;4.10;1.00;;;;;;5071845;28;20437;-86
2022/12/12 11:28:52;;;;;;;30.30;15.80;;;4.00;1.00;;;;;;5069923;28;20175;-86
2022/12/12 11:31:31;;;;;;;31.67;15.77;;;4.00;1.00;;;;;;5064074;28;20195;-87
2022/12/12 11:34:14;;;;;;;33.80;15.70;;;3.90;1.00;;;;;;5086004;28;20186;-87
2022/12/12 11:36:58;;;;;;;31.83;15.43;;;3.90;1.00;;;;;;5063126;28;20179;-84
2022/12/12 11:43:32;;;;;;;28.30;15.80;;;3.80;1.00;;;;;;5058021;28;20542;-86
2022/12/12 11:46:32;;;;;;;31.17;16.75;;;3.80;1.00;;;;;;5072953;28;20623;-85
2022/12/12 11:49:01;;;;;;;29.98;15.43;;;3.90;1.00;;;;;;5073235;28;20193;-86
2022/12/12 11:52:14;;;;;;;29.25;15.02;;;3.90;1.00;;;;;;5063762;28;20218;-87
2022/12/12 11:54:59;;;;;;;28.70;15.95;;;3.80;1.00;;;;;;5064602;28;20244;-87
2022/12/12 11:58:14;;;;;;;31.92;15.38;;;3.80;1.00;;;;;;5065638;28;20167;-87
2022/12/12 12:01:08;;;;;;;26.90;14.90;;;3.80;1.00;;;;;;5059663;28;20175;-86
2022/12/12 12:07:40;;;;;;;46.35;23.02;;;3.90;1.00;;;;;;5073153;28;20586;-86
2022/12/12 12:10:18;;;;;;;53.53;26.10;;;4.00;1.00;;;;;;5054556;28;20183;-86
2022/12/12 12:13:15;;;;;;;52.38;25.60;;;4.00;1.00;;;;;;5052087;28;20265;-86
2022/12/12 12:16:14;;;;;;;46.77;23.33;;;4.00;1.00;;;;;;5068427;28;20232;-86
2022/12/12 12:19:14;;;;;;;48.17;22.25;;;3.90;1.00;;;;;;5072823;28;20413;-87
2022/12/12 12:21:45;;;;;;;38.63;20.60;;;3.90;1.00;;;;;;5071625;28;20204;-86
2022/12/12 12:24:33;;;;;;;40.90;20.70;;;3.80;1.00;;;;;;5072460;28;20698;-86
2022/12/12 12:27:20;;;;;;;49.90;23.27;;;3.70;1.00;;;;;;5066619;28;20498;-86
2022/12/12 12:33:37;;;;;;;45.60;22.95;;;3.60;1.00;;;;;;5072456;28;20297;-78
2022/12/12 12:36:21;;;;;;;50.13;23.30;;;3.60;1.00;;;;;;5071265;28;20163;-76
2022/12/12 12:39:22;;;;;;;44.90;23.10;;;3.60;1.00;;;;;;5071204;28;20186;-77
2022/12/12 12:42:00;;;;;;;57.33;25.83;;;3.60;1.00;;;;;;5071217;28;20177;-77
2022/12/12 12:44:50;;;;;;;45.55;21.85;;;3.50;1.00;;;;;;5063562;28;20649;-77
2022/12/12 12:47:43;;;;;;;40.55;20.67;;;3.40;1.00;;;;;;5068649;28;20179;-76
2022/12/12 12:51:04;;;;;;;47.33;21.75;;;3.30;1.00;;;;;;5069047;28;20174;-87
2022/12/12 12:53:59;;;;;;;41.53;20.55;;;3.20;1.00;;;;;;5066561;28;20237;-85
2022/12/12 12:56:32;;;;;;;43.53;20.90;;;3.20;1.00;;;;;;5071515;28;20189;-85
2022/12/12 13:02:49;;;;;;;43.22;21.45;;;3.10;1.00;;;;;;5067326;28;20194;-87
2022/12/12 13:05:35;;;;;;;50.95;23.33;;;3.10;1.00;;;;;;5057980;28;20971;-77
2022/12/12 13:08:28;;;;;;;45.22;21.48;;;3.10;1.00;;;;;;5074581;28;20190;-76
2022/12/12 13:11:11;;;;;;;45.72;20.40;;;3.10;1.00;;;;;;5063004;28;20253;-77
2022/12/12 13:13:52;;;;;;;45.80;22.58;;;3.10;1.00;;;;;;5051447;28;20257;-78
2022/12/12 13:16:25;;;;;;;43.35;21.90;;;3.10;1.00;;;;;;5069367;28;20586;-76
2022/12/12 13:19:46;;;;;;;42.70;20.42;;;3.00;1.00;;;;;;5074728;28;20186;-77
2022/12/12 13:22:48;;;;;;;38.88;20.75;;;2.90;1.00;;;;;;5014538;28;20195;-77
2022/12/12 13:25:28;;;;;;;44.67;21.42;;;2.80;1.00;;;;;;5014452;28;20266;-77
2022/12/12 13:28:46;;;;;;;41.42;21.90;;;2.80;1.00;;;;;;5018133;28;20196;-77
2022/12/12 13:31:53;;;;;;;44.58;20.30;;;2.80;1.00;;;;;;5011887;28;20189;-75
2022/12/12 13:34:46;;;;;;;40.03;20.85;;;2.80;1.00;;;;;;4937532;29;20194;-89
2022/12/12 13:37:33;;;;;;;43.33;20.98;;;2.80;1.00;;;;;;4937476;29;20609;-84
2022/12/12 13:43:56;;;;;;;36.92;19.67;;;2.90;1.00;;;;;;4937440;29;20202;-84
2022/12/12 13:53:20;;;;;;;35.13;19.05;;;2.80;1.00;;;;;;4912485;29;20291;-88
2022/12/12 13:56:33;;;;;;;37.30;18.92;;;2.80;1.00;;;;;;4930622;28;20694;-87
2022/12/12 13:59:26;;;;;;;34.08;18.40;;;2.80;1.00;;;;;;4899241;29;20604;-85
2022/12/12 14:02:38;;;;;;;40.13;18.98;;;2.80;1.00;;;;;;4899342;29;20253;-85
2022/12/12 14:05:11;;;;;;;39.60;19.23;;;2.80;1.00;;;;;;4878561;29;20200;-78
2022/12/12 14:07:38;;;;;;;34.08;17.83;;;2.80;1.00;;;;;;4861757;29;20333;-78
2022/12/12 14:10:40;;;;;;;30.33;15.88;;;2.80;1.00;;;;;;4888448;29;20198;-78
2022/12/12 14:13:29;;;;;;;36.97;19.25;;;2.80;1.00;;;;;;4882663;29;20237;-79
2022/12/12 14:16:04;;;;;;;33.00;17.65;;;2.80;1.00;;;;;;4895007;29;20276;-79
2022/12/12 14:18:58;;;;;;;33.70;18.77;;;2.80;1.00;;;;;;4877157;29;20252;-79
2022/12/12 14:25:04;;;;;;;32.88;17.35;;;2.80;1.00;;;;;;4899075;29;20192;-83
2022/12/12 14:27:48;;;;;;;37.08;18.33;;;2.60;1.00;;;;;;4913847;29;20197;-83
2022/12/12 14:30:22;;;;;;;30.67;17.25;;;2.50;1.00;;;;;;4898354;29;20307;-83
2022/12/12 14:33:07;;;;;;;32.22;16.25;;;2.50;1.00;;;;;;4939429;28;20213;-83
2022/12/12 14:36:03;;;;;;;37.97;19.10;;;2.50;1.00;;;;;;4978389;28;20216;-84
2022/12/12 14:38:54;;;;;;;42.05;18.38;;;2.50;1.00;;;;;;5006936;28;20195;-84
2022/12/12 14:41:36;;;;;;;34.72;17.02;;;2.60;1.00;;;;;;5047815;28;20192;-84
2022/12/12 14:44:07;;;;;;;29.27;16.13;;;2.60;1.00;;;;;;5047234;28;20183;-84
2022/12/12 14:50:16;;;;;;;38.95;17.77;;;2.60;1.00;;;;;;5065074;28;20181;-83
2022/12/12 14:52:44;;;;;;;34.22;18.08;;;2.60;1.00;;;;;;5073372;28;20216;-82
2022/12/12 14:55:14;;;;;;;34.85;18.40;;;2.60;1.00;;;;;;5075119;28;20246;-87
2022/12/12 14:57:47;;;;;;;36.65;17.67;;;2.60;1.00;;;;;;5074530;28;20594;-86
2022/12/12 15:00:18;;;;;;;39.05;17.17;;;2.60;1.00;;;;;;5075187;28;20163;-85
2022/12/12 15:02:49;;;;;;;34.22;16.67;;;2.50;1.00;;;;;;5075764;28;20228;-87
2022/12/12 15:05:20;;;;;;;38.38;17.38;;;2.50;1.00;;;;;;5073569;28;20626;-86